createdAt,value
2022-09-21T00:02:17.125Z,10.63
2022-09-21T00:07:19.362Z,11.18
2022-09-21T00:12:21.655Z,10.60
2022-09-21T00:17:23.863Z,8.90
2022-09-21T00:22:26.050Z,9.88
2022-09-21T00:27:30.211Z,10.68
2022-09-21T00:32:33.681Z,8.55
2022-09-21T00:37:36.176Z,8.98
2022-09-21T00:42:38.150Z,9.70
2022-09-21T00:47:45.426Z,9.00
2022-09-21T00:52:55.553Z,9.13
2022-09-21T00:58:03.056Z,8.50
2022-09-21T01:03:06.679Z,8.70
2022-09-21T01:08:12.376Z,9.50
2022-09-21T01:13:46.012Z,10.05
2022-09-21T01:19:05.765Z,9.25
2022-09-21T01:24:24.621Z,10.05
2022-09-21T01:29:31.336Z,22.08
2022-09-21T01:34:59.711Z,12.35
2022-09-21T01:40:07.713Z,11.05
2022-09-21T01:45:12.325Z,12.60
2022-09-21T01:50:17.192Z,13.05
2022-09-21T01:55:28.317Z,12.48
2022-09-21T02:00:34.408Z,13.27
2022-09-21T02:05:36.796Z,14.02
2022-09-21T02:11:00.676Z,14.07
2022-09-21T02:16:21.263Z,14.57
2022-09-21T02:21:33.356Z,14.60
2022-09-21T02:26:45.516Z,15.15
2022-09-21T02:31:53.756Z,15.20
2022-09-21T02:37:02.173Z,15.68
2022-09-21T02:42:28.537Z,15.27
2022-09-21T02:47:46.487Z,14.38
2022-09-21T02:52:48.884Z,14.25
2022-09-21T02:57:50.890Z,14.32
2022-09-21T03:02:52.835Z,14.18
2022-09-21T03:07:54.708Z,15.63
2022-09-21T03:12:59.524Z,14.30
2022-09-21T03:18:02.453Z,14.80
2022-09-21T03:23:04.624Z,13.53
2022-09-21T03:28:06.846Z,14.60
2022-09-21T03:33:09.306Z,13.60
2022-09-21T03:38:11.764Z,14.73
2022-09-21T03:43:13.940Z,13.30
2022-09-21T03:48:16.914Z,14.98
2022-09-21T03:53:19.096Z,18.27
2022-09-21T03:58:22.153Z,14.35
2022-09-21T04:03:24.256Z,15.65
2022-09-21T04:08:26.425Z,14.77
2022-09-21T04:13:28.589Z,16.92
2022-09-21T04:18:30.478Z,17.30
2022-09-21T04:23:32.934Z,16.98
2022-09-21T04:28:34.873Z,18.15
2022-09-21T04:33:36.772Z,18.17
2022-09-21T04:38:38.580Z,18.20
2022-09-21T04:43:45.800Z,17.05
2022-09-21T04:48:48.896Z,16.80
2022-09-21T04:53:51.636Z,19.35
2022-09-21T04:58:53.631Z,16.92
2022-09-21T05:03:55.699Z,19.02
2022-09-21T05:09:16.192Z,16.48
2022-09-21T05:14:18.770Z,18.02
2022-09-21T05:19:20.765Z,15.32
2022-09-21T05:24:22.812Z,15.80
2022-09-21T05:29:25.102Z,15.63
2022-09-21T05:34:43.133Z,15.18
2022-09-21T05:39:45.356Z,14.85
2022-09-21T05:44:49.389Z,15.52
2022-09-21T05:50:18.260Z,14.00
2022-09-21T05:55:44.957Z,13.38
2022-09-21T06:01:15.190Z,12.93
2022-09-21T06:06:21.027Z,13.82
2022-09-21T06:11:22.908Z,13.32
2022-09-21T06:16:25.111Z,12.60
2022-09-21T06:21:27.217Z,13.70
2022-09-21T06:26:29.143Z,12.43
2022-09-21T06:31:31.088Z,16.83
2022-09-21T06:36:33.012Z,12.93
2022-09-21T06:41:35.057Z,12.25
2022-09-21T06:46:37.206Z,12.27
2022-09-21T06:51:39.269Z,11.70
2022-09-21T06:56:43.303Z,10.63
2022-09-21T07:01:45.486Z,22.45
2022-09-21T07:06:48.123Z,10.63
2022-09-21T07:11:50.133Z,9.85
2022-09-21T07:16:53.106Z,10.45
2022-09-21T07:21:55.160Z,9.63
2022-09-21T07:26:58.166Z,9.15
2022-09-21T07:32:00.119Z,8.17
2022-09-21T07:37:02.084Z,6.10
2022-09-21T07:42:04.038Z,5.05
2022-09-21T07:47:06.435Z,5.10
2022-09-21T07:52:11.028Z,5.70
2022-09-21T07:57:31.685Z,4.55
2022-09-21T08:02:33.622Z,4.60
2022-09-21T08:07:35.595Z,4.03
2022-09-21T08:12:37.487Z,3.50
2022-09-21T08:17:39.701Z,3.67
2022-09-21T08:22:41.610Z,4.30
2022-09-21T08:27:43.560Z,4.80
2022-09-21T08:32:51.553Z,4.05
2022-09-21T08:37:54.779Z,4.40
2022-09-21T08:43:02.991Z,25.00
2022-09-21T08:48:24.056Z,3.28
2022-09-21T08:53:40.008Z,3.30
2022-09-21T08:58:43.453Z,3.10
2022-09-21T09:04:05.725Z,2.80
2022-09-21T09:09:33.925Z,2.42
2022-09-21T09:14:44.717Z,2.20
2022-09-21T09:19:54.404Z,1.85
2022-09-21T09:25:02.907Z,1.83
2022-09-21T09:30:30.373Z,1.90
2022-09-21T09:35:44.585Z,1.60
2022-09-21T09:40:53.735Z,1.80
2022-09-21T09:45:56.120Z,1.73
2022-09-21T09:50:58.465Z,1.90
2022-09-21T09:56:01.153Z,1.30
2022-09-21T10:01:03.526Z,1.50
2022-09-21T10:06:06.054Z,1.60
2022-09-21T10:11:09.512Z,1.30
2022-09-21T10:16:20.424Z,1.60
2022-09-21T10:21:35.613Z,1.50
2022-09-21T10:26:45.501Z,1.42
2022-09-21T10:32:02.919Z,1.40
2022-09-21T10:37:29.011Z,1.35
2022-09-21T10:42:36.335Z,1.65
2022-09-21T10:47:44.863Z,1.80
2022-09-21T10:52:47.436Z,1.38
2022-09-21T10:57:51.174Z,1.63
2022-09-21T11:02:55.022Z,1.90
2022-09-21T11:08:02.277Z,2.47
2022-09-21T11:13:29.782Z,2.50
2022-09-21T11:18:45.588Z,2.22
2022-09-21T11:23:58.171Z,2.17
2022-09-21T11:29:18.051Z,17.85
2022-09-21T11:34:41.084Z,1.98
2022-09-21T11:39:56.068Z,2.10
2022-09-21T11:45:01.263Z,1.83
2022-09-21T11:50:32.127Z,1.80
2022-09-21T11:55:52.885Z,2.00
2022-09-21T12:01:23.903Z,2.70
2022-09-21T12:07:08.581Z,2.58
2022-09-21T12:12:31.584Z,2.22
2022-09-21T12:17:58.530Z,2.20
2022-09-21T12:23:23.295Z,1.50
2022-09-21T12:28:38.803Z,1.40
2022-09-21T12:33:51.156Z,1.85
2022-09-21T12:39:18.453Z,1.63
2022-09-21T12:44:31.463Z,1.65
2022-09-21T12:49:33.553Z,1.30
2022-09-21T12:54:39.310Z,1.00
2022-09-21T12:59:50.281Z,1.50
2022-09-21T13:04:52.683Z,1.20
2022-09-21T13:09:54.729Z,1.17
2022-09-21T13:15:25.381Z,0.85
2022-09-21T13:20:33.043Z,0.77
2022-09-21T13:25:37.781Z,0.90
2022-09-21T13:30:43.241Z,0.98
2022-09-21T13:36:00.345Z,0.73
2022-09-21T13:41:21.164Z,1.00
2022-09-21T13:46:35.104Z,0.80
2022-09-21T13:52:20.810Z,0.73
2022-09-21T13:57:28.963Z,1.13
2022-09-21T14:02:35.342Z,1.42
2022-09-21T14:12:44.714Z,1.00
2022-09-21T14:18:16.358Z,0.90
2022-09-21T14:23:21.541Z,0.60
2022-09-21T14:28:38.953Z,0.80
2022-09-21T14:33:47.108Z,0.80
2022-09-21T14:39:02.369Z,1.02
2022-09-21T14:44:05.064Z,1.20
2022-09-21T14:49:35.257Z,0.90
2022-09-21T14:55:15.793Z,2.00
2022-09-21T15:00:26.552Z,3.90
2022-09-21T15:05:35.031Z,4.57
2022-09-21T15:10:59.888Z,21.88
2022-09-21T15:16:36.836Z,9.65
2022-09-21T15:21:43.568Z,10.60
2022-09-21T15:26:47.139Z,2.20
2022-09-21T15:31:50.738Z,2.28
2022-09-21T15:36:53.290Z,1.88
2022-09-21T15:42:20.161Z,1.80
2022-09-21T15:47:26.280Z,1.33
2022-09-21T15:52:38.034Z,1.50
2022-09-21T15:57:43.237Z,6.20
2022-09-21T16:03:19.537Z,1.27
2022-09-21T16:08:22.716Z,1.67
2022-09-21T16:13:43.745Z,1.80
2022-09-21T16:18:51.367Z,2.20
2022-09-21T16:23:57.356Z,2.90
2022-09-21T16:29:29.786Z,3.88
2022-09-21T16:34:40.021Z,2.72
2022-09-21T16:39:43.339Z,2.28
2022-09-21T16:44:47.096Z,2.15
2022-09-21T16:49:49.214Z,3.40
2022-09-21T16:54:51.801Z,2.30
2022-09-21T17:00:00.197Z,1.73
2022-09-21T17:05:09.556Z,2.03
2022-09-21T17:10:15.059Z,2.30
2022-09-21T17:15:17.273Z,3.25
2022-09-21T17:20:38.243Z,4.00
2022-09-21T17:25:40.262Z,2.15
2022-09-21T17:30:42.612Z,1.73
2022-09-21T17:35:44.923Z,1.55
2022-09-21T17:40:47.461Z,1.77
2022-09-21T17:46:21.852Z,1.50
2022-09-21T17:51:43.276Z,2.25
2022-09-21T17:56:51.858Z,2.30
2022-09-21T18:01:56.824Z,2.45
2022-09-21T18:07:03.729Z,4.00
2022-09-21T18:12:28.107Z,5.53
2022-09-21T18:17:59.346Z,4.80
2022-09-21T18:23:20.160Z,4.18
2022-09-21T18:28:40.450Z,3.10
2022-09-21T18:33:56.777Z,2.50
2022-09-21T18:38:59.622Z,2.85
2022-09-21T18:44:14.237Z,2.80
2022-09-21T18:49:52.251Z,3.00
2022-09-21T18:54:54.746Z,3.03
2022-09-21T18:59:57.100Z,3.53
2022-09-21T19:04:59.470Z,3.50
2022-09-21T19:10:35.401Z,3.42
2022-09-21T19:16:01.187Z,3.30
2022-09-21T19:21:09.585Z,3.97
2022-09-21T19:26:27.032Z,4.57
2022-09-21T19:31:36.146Z,5.43
2022-09-21T19:36:39.062Z,7.03
2022-09-21T19:42:06.941Z,9.87
2022-09-21T19:47:30.639Z,11.27
2022-09-21T19:52:35.910Z,13.25
2022-09-21T19:57:56.382Z,12.43
2022-09-21T20:03:25.230Z,9.20
2022-09-21T20:08:46.270Z,7.45
2022-09-21T20:13:54.199Z,6.55
2022-09-21T20:19:17.262Z,7.22
2022-09-21T20:24:29.527Z,6.57
2022-09-21T20:29:31.734Z,6.22
2022-09-21T20:34:33.956Z,5.63
2022-09-21T20:39:36.004Z,6.20
2022-09-21T20:44:37.923Z,6.10
2022-09-21T20:49:40.397Z,6.57
2022-09-21T20:54:49.257Z,5.82
2022-09-21T20:59:51.700Z,6.25
2022-09-21T21:04:53.563Z,6.25
2022-09-21T21:09:55.448Z,6.57
2022-09-21T21:14:59.382Z,6.45
2022-09-21T21:20:02.228Z,6.43
2022-09-21T21:25:04.892Z,6.73
2022-09-21T21:30:08.330Z,6.80
2022-09-21T21:35:10.241Z,6.45
2022-09-21T21:40:12.159Z,6.60
2022-09-21T21:45:14.141Z,6.93
2022-09-21T21:50:16.673Z,7.55
2022-09-21T21:55:18.525Z,8.52
2022-09-21T22:00:20.584Z,9.07
2022-09-21T22:05:22.773Z,7.93
2022-09-21T22:10:24.728Z,9.23
2022-09-21T22:15:27.364Z,8.00
2022-09-21T22:20:29.308Z,9.07
2022-09-21T22:25:31.368Z,9.00
2022-09-21T22:30:33.660Z,8.98
2022-09-21T22:35:35.551Z,12.90
2022-09-21T22:40:37.884Z,8.95
2022-09-21T22:45:39.768Z,8.73
2022-09-21T22:50:43.622Z,9.30
2022-09-21T22:55:45.613Z,9.38
2022-09-21T23:00:47.872Z,9.75
2022-09-21T23:05:58.090Z,9.98
2022-09-21T23:11:15.102Z,9.65
2022-09-21T23:16:17.988Z,9.52
2022-09-21T23:21:25.146Z,10.63
2022-09-21T23:26:28.702Z,10.45
2022-09-21T23:36:34.601Z,10.23
2022-09-21T23:41:36.941Z,10.63
2022-09-21T23:46:39.881Z,11.18
2022-09-21T23:51:41.951Z,10.93
2022-09-21T23:56:44.020Z,9.48
